sensor_id;sensor_type;location;lat;lon;timestamp;pressure;altitude;pressure_sealevel;temperature;humidity
7168;BME280;3625;51.762;14.320;2022-08-30T00:02:38;101172.72;;;15.50;100.00
7168;BME280;3625;51.762;14.320;2022-08-30T00:05:08;101178.09;;;15.48;100.00
7168;BME280;3625;51.762;14.320;2022-08-30T00:07:37;101183.50;;;15.47;100.00
7168;BME280;3625;51.762;14.320;2022-08-30T00:10:06;101187.03;;;15.47;100.00
7168;BME280;3625;51.762;14.320;2022-08-30T00:12:37;101183.53;;;15.45;100.00
7168;BME280;3625;51.762;14.320;2022-08-30T00:15:08;101184.41;;;15.46;100.00
7168;BME280;3625;51.762;14.320;2022-08-30T00:17:39;101183.53;;;15.45;100.00
7168;BME280;3625;51.762;14.320;2022-08-30T00:20:10;101183.59;;;15.44;100.00
7168;BME280;3625;51.762;14.320;2022-08-30T00:22:39;101177.53;;;15.39;100.00
7168;BME280;3625;51.762;14.320;2022-08-30T00:25:09;101174.25;;;15.29;100.00
7168;BME280;3625;51.762;14.320;2022-08-30T00:27:39;101165.72;;;15.18;100.00
7168;BME280;3625;51.762;14.320;2022-08-30T00:30:12;101164.25;;;15.06;100.00
7168;BME280;3625;51.762;14.320;2022-08-30T00:32:41;101166.31;;;14.97;100.00
7168;BME280;3625;51.762;14.320;2022-08-30T00:35:12;101158.56;;;14.89;100.00
7168;BME280;3625;51.762;14.320;2022-08-30T00:37:42;101164.97;;;14.82;100.00
7168;BME280;3625;51.762;14.320;2022-08-30T00:40:12;101162.38;;;14.79;100.00
7168;BME280;3625;51.762;14.320;2022-08-30T00:42:43;101163.38;;;14.77;100.00
7168;BME280;3625;51.762;14.320;2022-08-30T00:45:22;101163.41;;;14.75;100.00
7168;BME280;3625;51.762;14.320;2022-08-30T00:47:52;101162.56;;;14.73;100.00
7168;BME280;3625;51.762;14.320;2022-08-30T00:50:24;101167.00;;;14.74;100.00
7168;BME280;3625;51.762;14.320;2022-08-30T00:52:56;101165.25;;;14.73;100.00
7168;BME280;3625;51.762;14.320;2022-08-30T00:55:27;101160.81;;;14.72;100.00
7168;BME280;3625;51.762;14.320;2022-08-30T00:58:00;101164.50;;;14.68;100.00
7168;BME280;3625;51.762;14.320;2022-08-30T01:00:33;101162.06;;;14.60;100.00
7168;BME280;3625;51.762;14.320;2022-08-30T01:03:02;101153.47;;;14.49;100.00
7168;BME280;3625;51.762;14.320;2022-08-30T01:05:31;101153.69;;;14.42;100.00
7168;BME280;3625;51.762;14.320;2022-08-30T01:08:00;101158.22;;;14.36;100.00
7168;BME280;3625;51.762;14.320;2022-08-30T01:10:29;101163.66;;;14.32;100.00
7168;BME280;3625;51.762;14.320;2022-08-30T01:12:59;101161.22;;;14.24;100.00
7168;BME280;3625;51.762;14.320;2022-08-30T01:15:28;101160.41;;;14.21;100.00
7168;BME280;3625;51.762;14.320;2022-08-30T01:18:01;101163.19;;;14.16;100.00
7168;BME280;3625;51.762;14.320;2022-08-30T01:20:38;101164.22;;;14.11;100.00
7168;BME280;3625;51.762;14.320;2022-08-30T01:23:14;101162.47;;;14.10;100.00
7168;BME280;3625;51.762;14.320;2022-08-30T01:25:46;101157.28;;;14.05;100.00
7168;BME280;3625;51.762;14.320;2022-08-30T01:28:19;101159.22;;;13.98;100.00
7168;BME280;3625;51.762;14.320;2022-08-30T01:30:49;101170.00;;;13.92;100.00
7168;BME280;3625;51.762;14.320;2022-08-30T01:33:18;101163.88;;;13.89;100.00
7168;BME280;3625;51.762;14.320;2022-08-30T01:35:50;101159.53;;;13.85;100.00
7168;BME280;3625;51.762;14.320;2022-08-30T01:38:24;101164.09;;;13.80;100.00
7168;BME280;3625;51.762;14.320;2022-08-30T01:40:57;101161.59;;;13.74;100.00
7168;BME280;3625;51.762;14.320;2022-08-30T01:43:26;101166.13;;;13.69;100.00
7168;BME280;3625;51.762;14.320;2022-08-30T01:45:55;101160.03;;;13.65;100.00
7168;BME280;3625;51.762;14.320;2022-08-30T01:48:25;101161.00;;;13.61;100.00
7168;BME280;3625;51.762;14.320;2022-08-30T01:50:57;101161.94;;;13.58;100.00
7168;BME280;3625;51.762;14.320;2022-08-30T01:53:28;101165.56;;;13.56;100.00
7168;BME280;3625;51.762;14.320;2022-08-30T01:55:57;101166.50;;;13.53;100.00
7168;BME280;3625;51.762;14.320;2022-08-30T01:58:26;101160.38;;;13.50;100.00
7168;BME280;3625;51.762;14.320;2022-08-30T02:00:56;101171.09;;;13.47;100.00
7168;BME280;3625;51.762;14.320;2022-08-30T02:03:25;101171.13;;;13.45;100.00
7168;BME280;3625;51.762;14.320;2022-08-30T02:05:58;101171.09;;;13.47;100.00
7168;BME280;3625;51.762;14.320;2022-08-30T02:08:30;101172.84;;;13.48;100.00
7168;BME280;3625;51.762;14.320;2022-08-30T02:11:01;101176.44;;;13.45;100.00
7168;BME280;3625;51.762;14.320;2022-08-30T02:13:31;101182.66;;;13.44;100.00
7168;BME280;3625;51.762;14.320;2022-08-30T02:16:00;101169.41;;;13.43;100.00
7168;BME280;3625;51.762;14.320;2022-08-30T02:18:29;101171.28;;;13.39;100.00
7168;BME280;3625;51.762;14.320;2022-08-30T02:21:00;101167.81;;;13.34;100.00
7168;BME280;3625;51.762;14.320;2022-08-30T02:23:31;101161.75;;;13.29;100.00
7168;BME280;3625;51.762;14.320;2022-08-30T02:26:00;101168.03;;;13.25;100.00
7168;BME280;3625;51.762;14.320;2022-08-30T02:28:29;101161.94;;;13.20;100.00
7168;BME280;3625;51.762;14.320;2022-08-30T02:30:59;101157.66;;;13.14;100.00
7168;BME280;3625;51.762;14.320;2022-08-30T02:33:28;101158.63;;;13.07;100.00
7168;BME280;3625;51.762;14.320;2022-08-30T02:35:58;101171.09;;;13.05;100.00
7168;BME280;3625;51.762;14.320;2022-08-30T02:38:27;101164.91;;;13.05;100.00
7168;BME280;3625;51.762;14.320;2022-08-30T02:40:57;101163.94;;;13.07;100.00
7168;BME280;3625;51.762;14.320;2022-08-30T02:43:26;101166.53;;;13.10;100.00
7168;BME280;3625;51.762;14.320;2022-08-30T02:45:55;101167.47;;;13.08;100.00
7168;BME280;3625;51.762;14.320;2022-08-30T02:48:24;101166.69;;;13.04;100.00
7168;BME280;3625;51.762;14.320;2022-08-30T02:50:53;101164.09;;;13.01;100.00
7168;BME280;3625;51.762;14.320;2022-08-30T02:53:22;101167.66;;;12.99;100.00
7168;BME280;3625;51.762;14.320;2022-08-30T02:55:53;101170.41;;;12.96;100.00
7168;BME280;3625;51.762;14.320;2022-08-30T02:58:25;101170.47;;;12.93;100.00
7168;BME280;3625;51.762;14.320;2022-08-30T03:00:57;101173.22;;;12.88;100.00
7168;BME280;3625;51.762;14.320;2022-08-30T03:03:25;101174.13;;;12.87;100.00
7168;BME280;3625;51.762;14.320;2022-08-30T03:05:55;101168.75;;;12.89;100.00
7168;BME280;3625;51.762;14.320;2022-08-30T03:08:24;101169.59;;;12.91;100.00
7168;BME280;3625;51.762;14.320;2022-08-30T03:10:53;101165.97;;;12.96;100.00
7168;BME280;3625;51.762;14.320;2022-08-30T03:13:25;101175.56;;;13.03;100.00
7168;BME280;3625;51.762;14.320;2022-08-30T03:15:54;101171.13;;;13.04;100.00
7168;BME280;3625;51.762;14.320;2022-08-30T03:18:23;101172.94;;;13.02;100.00
7168;BME280;3625;51.762;14.320;2022-08-30T03:20:53;101166.69;;;13.04;100.00
7168;BME280;3625;51.762;14.320;2022-08-30T03:23:22;101174.63;;;13.06;100.00
7168;BME280;3625;51.762;14.320;2022-08-30T03:25:51;101179.06;;;13.05;100.00
7168;BME280;3625;51.762;14.320;2022-08-30T03:28:20;101184.25;;;13.10;100.00
7168;BME280;3625;51.762;14.320;2022-08-30T03:30:51;101184.28;;;13.08;100.00
7168;BME280;3625;51.762;14.320;2022-08-30T03:33:21;101187.91;;;13.06;100.00
7168;BME280;3625;51.762;14.320;2022-08-30T03:35:51;101183.56;;;13.02;100.00
7168;BME280;3625;51.762;14.320;2022-08-30T03:38:20;101180.91;;;13.00;100.00
7168;BME280;3625;51.762;14.320;2022-08-30T03:40:49;101182.72;;;12.98;100.00
7168;BME280;3625;51.762;14.320;2022-08-30T03:43:18;101181.84;;;12.98;100.00
7168;BME280;3625;51.762;14.320;2022-08-30T03:45:47;101192.34;;;13.05;100.00
7168;BME280;3625;51.762;14.320;2022-08-30T03:48:18;101190.59;;;13.04;100.00
7168;BME280;3625;51.762;14.320;2022-08-30T03:50:46;101196.84;;;13.02;100.00
7168;BME280;3625;51.762;14.320;2022-08-30T03:53:15;101199.53;;;12.99;100.00
7168;BME280;3625;51.762;14.320;2022-08-30T03:55:45;101194.22;;;12.99;100.00
7168;BME280;3625;51.762;14.320;2022-08-30T03:58:15;101193.31;;;13.00;100.00
7168;BME280;3625;51.762;14.320;2022-08-30T04:00:45;101201.28;;;13.00;100.00
7168;BME280;3625;51.762;14.320;2022-08-30T04:03:16;101203.06;;;13.01;100.00
7168;BME280;3625;51.762;14.320;2022-08-30T04:05:45;101198.66;;;12.98;100.00
7168;BME280;3625;51.762;14.320;2022-08-30T04:08:14;101200.56;;;12.93;100.00
7168;BME280;3625;51.762;14.320;2022-08-30T04:10:43;101210.34;;;12.90;100.00
7168;BME280;3625;51.762;14.320;2022-08-30T04:13:12;101134.13;;;12.50;100.00
7168;BME280;3625;51.762;14.320;2022-08-30T04:15:42;101197.91;;;12.92;100.00
7168;BME280;3625;51.762;14.320;2022-08-30T04:18:11;101206.72;;;12.95;100.00
7168;BME280;3625;51.762;14.320;2022-08-30T04:20:41;101209.41;;;12.94;100.00
7168;BME280;3625;51.762;14.320;2022-08-30T04:23:11;101212.09;;;12.91;100.00
7168;BME280;3625;51.762;14.320;2022-08-30T04:25:40;101207.66;;;12.91;100.00
7168;BME280;3625;51.762;14.320;2022-08-30T04:28:10;101208.41;;;12.98;100.00
7168;BME280;3625;51.762;14.320;2022-08-30T04:30:41;101208.22;;;13.07;100.00
7168;BME280;3625;51.762;14.320;2022-08-30T04:33:12;101207.25;;;13.12;100.00
7168;BME280;3625;51.762;14.320;2022-08-30T04:35:45;101213.03;;;13.33;100.00
7168;BME280;3625;51.762;14.320;2022-08-30T04:38:16;101223.41;;;13.45;100.00
7168;BME280;3625;51.762;14.320;2022-08-30T04:40:49;101225.81;;;13.57;100.00
7168;BME280;3625;51.762;14.320;2022-08-30T04:43:18;101232.63;;;13.69;100.00
7168;BME280;3625;51.762;14.320;2022-08-30T04:45:47;101229.59;;;13.84;100.00
7168;BME280;3625;51.762;14.320;2022-08-30T04:48:18;101230.25;;;13.95;100.00
7168;BME280;3625;51.762;14.320;2022-08-30T04:50:50;101237.91;;;14.09;100.00
7168;BME280;3625;51.762;14.320;2022-08-30T04:53:19;101227.84;;;14.20;100.00
7168;BME280;3625;51.762;14.320;2022-08-30T04:55:48;101235.53;;;14.32;100.00
7168;BME280;3625;51.762;14.320;2022-08-30T04:58:17;101244.22;;;14.42;100.00
7168;BME280;3625;51.762;14.320;2022-08-30T05:00:45;101244.81;;;14.53;100.00
7168;BME280;3625;51.762;14.320;2022-08-30T05:03:15;101234.00;;;14.59;100.00
7168;BME280;3625;51.762;14.320;2022-08-30T05:05:48;101234.59;;;14.70;100.00
7168;BME280;3625;51.762;14.320;2022-08-30T05:08:20;101242.38;;;14.78;100.00
7168;BME280;3625;51.762;14.320;2022-08-30T05:10:52;101244.88;;;14.84;100.00
7168;BME280;3625;51.762;14.320;2022-08-30T05:13:21;101248.94;;;14.97;100.00
7168;BME280;3625;51.762;14.320;2022-08-30T05:16:04;101249.81;;;14.97;100.00
7168;BME280;3625;51.762;14.320;2022-08-30T05:18:33;101251.53;;;15.00;100.00
7168;BME280;3625;51.762;14.320;2022-08-30T05:21:05;101248.78;;;15.03;100.00
7168;BME280;3625;51.762;14.320;2022-08-30T05:23:35;101252.97;;;15.12;100.00
7168;BME280;3625;51.762;14.320;2022-08-30T05:26:06;101251.63;;;15.28;100.00
7168;BME280;3625;51.762;14.320;2022-08-30T05:28:36;101251.41;;;15.35;100.00
7168;BME280;3625;51.762;14.320;2022-08-30T05:31:14;101260.00;;;15.45;100.00
7168;BME280;3625;51.762;14.320;2022-08-30T05:33:43;101263.34;;;15.52;100.00
7168;BME280;3625;51.762;14.320;2022-08-30T05:36:14;101266.81;;;15.57;100.00
7168;BME280;3625;51.762;14.320;2022-08-30T05:38:45;101268.41;;;15.62;100.00
7168;BME280;3625;51.762;14.320;2022-08-30T05:41:14;101267.09;;;15.75;100.00
7168;BME280;3625;51.762;14.320;2022-08-30T05:43:43;101278.13;;;15.65;100.00
7168;BME280;3625;51.762;14.320;2022-08-30T05:46:13;101275.06;;;15.77;100.00
7168;BME280;3625;51.762;14.320;2022-08-30T05:48:46;101277.34;;;15.91;100.00
7168;BME280;3625;51.762;14.320;2022-08-30T05:51:20;101276.72;;;16.09;100.00
7168;BME280;3625;51.762;14.320;2022-08-30T05:53:51;101281.06;;;16.13;100.00
7168;BME280;3625;51.762;14.320;2022-08-30T05:56:24;101278.47;;;16.10;100.00
7168;BME280;3625;51.762;14.320;2022-08-30T05:58:54;101273.75;;;16.18;100.00
7168;BME280;3625;51.762;14.320;2022-08-30T06:01:25;101273.69;;;16.21;100.00
7168;BME280;3625;51.762;14.320;2022-08-30T06:03:56;101272.66;;;16.25;100.00
7168;BME280;3625;51.762;14.320;2022-08-30T06:06:35;101279.81;;;16.51;100.00
7168;BME280;3625;51.762;14.320;2022-08-30T06:09:05;101280.75;;;16.76;100.00
7168;BME280;3625;51.762;14.320;2022-08-30T06:11:35;101276.56;;;16.94;100.00
7168;BME280;3625;51.762;14.320;2022-08-30T06:14:05;101283.66;;;17.20;100.00
7168;BME280;3625;51.762;14.320;2022-08-30T06:16:35;101276.47;;;17.45;100.00
7168;BME280;3625;51.762;14.320;2022-08-30T06:19:05;101269.16;;;17.73;100.00
7168;BME280;3625;51.762;14.320;2022-08-30T06:21:39;101277.41;;;17.91;100.00
7168;BME280;3625;51.762;14.320;2022-08-30T06:24:10;101278.78;;;18.01;100.00
7168;BME280;3625;51.762;14.320;2022-08-30T06:26:41;101278.00;;;18.21;100.00
7168;BME280;3625;51.762;14.320;2022-08-30T06:29:12;101284.47;;;18.37;100.00
7168;BME280;3625;51.762;14.320;2022-08-30T06:31:41;101282.59;;;18.39;100.00
7168;BME280;3625;51.762;14.320;2022-08-30T06:34:10;101281.16;;;18.30;100.00
7168;BME280;3625;51.762;14.320;2022-08-30T06:36:41;101286.09;;;18.41;100.00
7168;BME280;3625;51.762;14.320;2022-08-30T06:39:10;101284.22;;;18.65;100.00
7168;BME280;3625;51.762;14.320;2022-08-30T06:41:40;101284.44;;;18.80;100.00
7168;BME280;3625;51.762;14.320;2022-08-30T06:44:22;101284.25;;;18.85;100.00
7168;BME280;3625;51.762;14.320;2022-08-30T06:46:51;101282.88;;;18.95;100.00
7168;BME280;3625;51.762;14.320;2022-08-30T06:49:20;101284.63;;;19.16;100.00
7168;BME280;3625;51.762;14.320;2022-08-30T06:51:52;101288.31;;;19.34;100.00
7168;BME280;3625;51.762;14.320;2022-08-30T06:54:22;101296.19;;;19.37;100.00
7168;BME280;3625;51.762;14.320;2022-08-30T06:56:51;101287.50;;;19.32;100.00
7168;BME280;3625;51.762;14.320;2022-08-30T06:59:28;101250.50;;;19.39;100.00
7168;BME280;3625;51.762;14.320;2022-08-30T07:01:58;101294.28;;;19.80;100.00
7168;BME280;3625;51.762;14.320;2022-08-30T07:04:28;101303.34;;;19.96;100.00
7168;BME280;3625;51.762;14.320;2022-08-30T07:06:58;101300.38;;;20.02;100.00
7168;BME280;3625;51.762;14.320;2022-08-30T07:09:27;101298.63;;;19.82;100.00
7168;BME280;3625;51.762;14.320;2022-08-30T07:12:01;101299.03;;;19.73;100.00
7168;BME280;3625;51.762;14.320;2022-08-30T07:14:31;101304.66;;;19.69;100.00
7168;BME280;3625;51.762;14.320;2022-08-30T07:17:00;101298.22;;;19.32;100.00
7168;BME280;3625;51.762;14.320;2022-08-30T07:19:29;101301.03;;;19.70;100.00
7168;BME280;3625;51.762;14.320;2022-08-30T07:21:58;101307.19;;;19.90;100.00
7168;BME280;3625;51.762;14.320;2022-08-30T07:24:28;101309.28;;;20.21;100.00
7168;BME280;3625;51.762;14.320;2022-08-30T07:26:57;101315.03;;;19.76;100.00
7168;BME280;3625;51.762;14.320;2022-08-30T07:29:27;101308.56;;;19.62;100.00
7168;BME280;3625;51.762;14.320;2022-08-30T07:31:56;101314.38;;;20.09;100.00
7168;BME280;3625;51.762;14.320;2022-08-30T07:34:25;101325.94;;;20.65;100.00
7168;BME280;3625;51.762;14.320;2022-08-30T07:36:54;101331.50;;;20.97;100.00
7168;BME280;3625;51.762;14.320;2022-08-30T07:39:25;101323.38;;;20.98;100.00
7168;BME280;3625;51.762;14.320;2022-08-30T07:41:58;101328.06;;;20.76;100.00
7168;BME280;3625;51.762;14.320;2022-08-30T07:44:30;101331.72;;;20.58;100.00
7168;BME280;3625;51.762;14.320;2022-08-30T07:47:02;101334.44;;;20.92;100.00
7168;BME280;3625;51.762;14.320;2022-08-30T07:49:31;101327.84;;;21.50;100.00
7168;BME280;3625;51.762;14.320;2022-08-30T07:52:00;101328.63;;;21.84;100.00
7168;BME280;3625;51.762;14.320;2022-08-30T07:54:31;101326.50;;;21.58;100.00
7168;BME280;3625;51.762;14.320;2022-08-30T07:57:00;101335.69;;;21.37;100.00
7168;BME280;3625;51.762;14.320;2022-08-30T07:59:29;101337.06;;;21.78;100.00
7168;BME280;3625;51.762;14.320;2022-08-30T08:02:03;101335.91;;;21.82;100.00
7168;BME280;3625;51.762;14.320;2022-08-30T08:04:32;101343.19;;;21.98;99.02
7168;BME280;3625;51.762;14.320;2022-08-30T08:07:02;101344.84;;;22.00;96.45
7168;BME280;3625;51.762;14.320;2022-08-30T08:09:32;101352.59;;;21.73;94.31
7168;BME280;3625;51.762;14.320;2022-08-30T08:12:04;101355.81;;;21.47;96.87
7168;BME280;3625;51.762;14.320;2022-08-30T08:14:34;101355.78;;;21.64;96.03
7168;BME280;3625;51.762;14.320;2022-08-30T08:17:03;101349.06;;;21.56;95.06
7168;BME280;3625;51.762;14.320;2022-08-30T08:19:32;101353.44;;;21.41;96.07
7168;BME280;3625;51.762;14.320;2022-08-30T08:22:01;101344.66;;;21.37;97.64
7168;BME280;3625;51.762;14.320;2022-08-30T08:24:49;101354.31;;;21.41;98.96
7168;BME280;3625;51.762;14.320;2022-08-30T08:27:18;101349.50;;;21.31;98.53
7168;BME280;3625;51.762;14.320;2022-08-30T08:29:47;101351.28;;;21.13;100.00
7168;BME280;3625;51.762;14.320;2022-08-30T08:32:16;101204.06;;;20.12;98.61
7168;BME280;3625;51.762;14.320;2022-08-30T08:34:45;101352.63;;;20.87;100.00
7168;BME280;3625;51.762;14.320;2022-08-30T08:37:14;101350.22;;;20.64;100.00
7168;BME280;3625;51.762;14.320;2022-08-30T08:39:48;101358.13;;;20.67;100.00
7168;BME280;3625;51.762;14.320;2022-08-30T08:42:27;101352.22;;;20.95;100.00
7168;BME280;3625;51.762;14.320;2022-08-30T08:45:05;101360.81;;;21.37;100.00
7168;BME280;3625;51.762;14.320;2022-08-30T08:47:41;101345.03;;;21.47;98.64
7168;BME280;3625;51.762;14.320;2022-08-30T08:50:19;101354.81;;;21.65;98.78
7168;BME280;3625;51.762;14.320;2022-08-30T08:52:51;101356.56;;;21.66;95.91
7168;BME280;3625;51.762;14.320;2022-08-30T08:55:58;101354.72;;;21.51;97.76
7168;BME280;3625;51.762;14.320;2022-08-30T08:58:28;101356.38;;;21.36;99.58
7168;BME280;3625;51.762;14.320;2022-08-30T09:00:59;101359.28;;;21.15;97.69
7168;BME280;3625;51.762;14.320;2022-08-30T09:03:28;101348.44;;;20.82;99.61
7168;BME280;3625;51.762;14.320;2022-08-30T09:06:40;101357.09;;;20.69;100.00
7168;BME280;3625;51.762;14.320;2022-08-30T09:09:12;101351.81;;;20.68;100.00
7168;BME280;3625;51.762;14.320;2022-08-30T09:11:43;101347.22;;;20.70;100.00
7168;BME280;3625;51.762;14.320;2022-08-30T09:14:18;101357.00;;;20.90;100.00
7168;BME280;3625;51.762;14.320;2022-08-30T09:17:01;101356.47;;;21.35;100.00
7168;BME280;3625;51.762;14.320;2022-08-30T09:19:43;101360.16;;;22.00;94.94
7168;BME280;3625;51.762;14.320;2022-08-30T09:22:20;101358.69;;;22.26;92.81
7168;BME280;3625;51.762;14.320;2022-08-30T09:24:58;101300.09;;;22.29;90.68
7168;BME280;3625;51.762;14.320;2022-08-30T09:27:34;101356.66;;;22.92;86.98
7168;BME280;3625;51.762;14.320;2022-08-30T09:30:09;101360.63;;;23.45;82.79
7168;BME280;3625;51.762;14.320;2022-08-30T09:32:50;101350.69;;;23.17;80.45
7168;BME280;3625;51.762;14.320;2022-08-30T09:35:23;101355.66;;;22.79;81.26
7168;BME280;3625;51.762;14.320;2022-08-30T09:37:54;101349.56;;;22.12;84.75
7168;BME280;3625;51.762;14.320;2022-08-30T09:40:30;101354.59;;;22.03;87.32
7168;BME280;3625;51.762;14.320;2022-08-30T09:43:09;101323.75;;;21.75;88.29
7168;BME280;3625;51.762;14.320;2022-08-30T09:46:05;101327.00;;;20.80;95.68
7168;BME280;3625;51.762;14.320;2022-08-30T09:48:37;101341.63;;;20.39;100.00
7168;BME280;3625;51.762;14.320;2022-08-30T09:51:39;101318.81;;;19.91;100.00
7168;BME280;3625;51.762;14.320;2022-08-30T09:54:18;101336.44;;;19.78;100.00
7168;BME280;3625;51.762;14.320;2022-08-30T09:57:02;101331.72;;;20.02;100.00
7168;BME280;3625;51.762;14.320;2022-08-30T09:59:48;101344.38;;;20.37;100.00
7168;BME280;3625;51.762;14.320;2022-08-30T10:02:56;101343.97;;;21.34;99.08
7168;BME280;3625;51.762;14.320;2022-08-30T10:05:31;101351.56;;;22.09;93.70
7168;BME280;3625;51.762;14.320;2022-08-30T10:08:11;101353.41;;;23.01;88.21
7168;BME280;3625;51.762;14.320;2022-08-30T10:10:49;101305.88;;;22.53;86.52
7168;BME280;3625;51.762;14.320;2022-08-30T10:13:56;101345.72;;;22.32;90.48
7168;BME280;3625;51.762;14.320;2022-08-30T10:16:43;101346.78;;;21.97;89.08
7168;BME280;3625;51.762;14.320;2022-08-30T10:19:30;101320.69;;;21.33;91.27
7168;BME280;3625;51.762;14.320;2022-08-30T10:22:11;101348.50;;;22.15;88.24
7168;BME280;3625;51.762;14.320;2022-08-30T10:24:45;101346.13;;;21.93;87.84
7168;BME280;3625;51.762;14.320;2022-08-30T10:27:21;101347.22;;;21.89;88.14
7168;BME280;3625;51.762;14.320;2022-08-30T10:30:00;101349.47;;;22.61;87.02
7168;BME280;3625;51.762;14.320;2022-08-30T10:32:40;101346.69;;;23.08;83.34
7168;BME280;3625;51.762;14.320;2022-08-30T10:35:16;101358.16;;;22.82;81.26
7168;BME280;3625;51.762;14.320;2022-08-30T10:37:51;101304.59;;;22.44;81.34
7168;BME280;3625;51.762;14.320;2022-08-30T10:40:28;101124.38;;;20.80;83.69
7168;BME280;3625;51.762;14.320;2022-08-30T10:43:25;101345.63;;;22.65;82.40
7168;BME280;3625;51.762;14.320;2022-08-30T10:46:00;101336.56;;;22.66;82.25
7168;BME280;3625;51.762;14.320;2022-08-30T10:48:36;101343.16;;;23.22;79.80
7168;BME280;3625;51.762;14.320;2022-08-30T10:51:19;101311.59;;;23.08;78.85
7168;BME280;3625;51.762;14.320;2022-08-30T10:53:54;101335.34;;;23.17;80.73
7168;BME280;3625;51.762;14.320;2022-08-30T10:56:26;101278.44;;;22.76;81.32
7168;BME280;3625;51.762;14.320;2022-08-30T10:58:57;101332.31;;;22.78;81.09
7168;BME280;3625;51.762;14.320;2022-08-30T11:01:45;101329.38;;;22.51;82.78
7168;BME280;3625;51.762;14.320;2022-08-30T11:04:59;101335.56;;;22.37;80.27
7168;BME280;3625;51.762;14.320;2022-08-30T11:07:40;101327.91;;;22.30;82.76
7168;BME280;3625;51.762;14.320;2022-08-30T11:10:33;101292.09;;;21.63;84.31
7168;BME280;3625;51.762;14.320;2022-08-30T11:13:10;101314.63;;;21.45;85.25
7168;BME280;3625;51.762;14.320;2022-08-30T11:15:57;101301.75;;;21.34;85.60
7168;BME280;3625;51.762;14.320;2022-08-30T11:18:30;101318.03;;;21.49;83.37
7168;BME280;3625;51.762;14.320;2022-08-30T11:21:23;101325.75;;;21.22;75.73
7168;BME280;3625;51.762;14.320;2022-08-30T11:24:05;101297.28;;;21.18;78.30
7168;BME280;3625;51.762;14.320;2022-08-30T11:26:56;101313.22;;;21.38;76.77
7168;BME280;3625;51.762;14.320;2022-08-30T11:29:40;101273.31;;;21.12;75.53
7168;BME280;3625;51.762;14.320;2022-08-30T11:35:39;101305.94;;;21.40;77.08
7168;BME280;3625;51.762;14.320;2022-08-30T11:38:59;101301.91;;;21.31;77.71
7168;BME280;3625;51.762;14.320;2022-08-30T11:41:36;101301.72;;;21.19;74.73
7168;BME280;3625;51.762;14.320;2022-08-30T11:44:29;101278.56;;;21.15;73.85
7168;BME280;3625;51.762;14.320;2022-08-30T11:47:00;101297.88;;;21.23;74.01
7168;BME280;3625;51.762;14.320;2022-08-30T11:49:56;101285.03;;;21.10;71.09
7168;BME280;3625;51.762;14.320;2022-08-30T11:52:49;101293.97;;;21.11;67.23
7168;BME280;3625;51.762;14.320;2022-08-30T11:55:39;101293.63;;;21.19;66.17
7168;BME280;3625;51.762;14.320;2022-08-30T11:58:23;101296.94;;;21.24;62.35
7168;BME280;3625;51.762;14.320;2022-08-30T12:01:17;101295.66;;;21.31;61.16
7168;BME280;3625;51.762;14.320;2022-08-30T12:04:12;101288.28;;;21.34;62.68
7168;BME280;3625;51.762;14.320;2022-08-30T12:06:55;101280.41;;;21.47;63.54
7168;BME280;3625;51.762;14.320;2022-08-30T12:12:54;101281.66;;;21.57;58.58
7168;BME280;3625;51.762;14.320;2022-08-30T12:15:57;101277.59;;;21.66;61.51
7168;BME280;3625;51.762;14.320;2022-08-30T12:18:35;101270.59;;;21.79;62.03
7168;BME280;3625;51.762;14.320;2022-08-30T12:21:22;101272.16;;;21.99;62.97
7168;BME280;3625;51.762;14.320;2022-08-30T12:23:59;101264.59;;;22.21;62.50
7168;BME280;3625;51.762;14.320;2022-08-30T12:26:34;101262.25;;;22.61;61.80
7168;BME280;3625;51.762;14.320;2022-08-30T12:29:13;101221.03;;;22.74;58.49
7168;BME280;3625;51.762;14.320;2022-08-30T12:31:47;101178.22;;;22.38;57.64
7168;BME280;3625;51.762;14.320;2022-08-30T12:34:23;101255.97;;;22.76;58.54
7168;BME280;3625;51.762;14.320;2022-08-30T12:36:57;101267.50;;;22.64;59.95
7168;BME280;3625;51.762;14.320;2022-08-30T12:39:29;101258.13;;;22.85;58.91
7168;BME280;3625;51.762;14.320;2022-08-30T12:42:11;101258.78;;;23.47;57.87
7168;BME280;3625;51.762;14.320;2022-08-30T12:44:47;101268.25;;;23.82;54.26
7168;BME280;3625;51.762;14.320;2022-08-30T12:47:22;101238.44;;;23.55;55.52
7168;BME280;3625;51.762;14.320;2022-08-30T12:49:54;101254.56;;;23.57;56.38
7168;BME280;3625;51.762;14.320;2022-08-30T12:52:30;101249.19;;;23.98;54.95
7168;BME280;3625;51.762;14.320;2022-08-30T12:55:13;101244.97;;;24.48;52.67
7168;BME280;3625;51.762;14.320;2022-08-30T12:57:56;101245.53;;;24.53;53.03
7168;BME280;3625;51.762;14.320;2022-08-30T13:00:31;101242.38;;;24.86;51.64
7168;BME280;3625;51.762;14.320;2022-08-30T13:03:03;101244.91;;;25.14;51.73
7168;BME280;3625;51.762;14.320;2022-08-30T13:05:45;101246.19;;;25.46;49.36
7168;BME280;3625;51.762;14.320;2022-08-30T13:08:22;101233.84;;;24.92;50.29
7168;BME280;3625;51.762;14.320;2022-08-30T13:10:59;101228.66;;;25.01;51.14
7168;BME280;3625;51.762;14.320;2022-08-30T13:13:38;101222.25;;;25.02;50.43
7168;BME280;3625;51.762;14.320;2022-08-30T13:16:24;101222.88;;;24.80;53.61
7168;BME280;3625;51.762;14.320;2022-08-30T13:19:31;101196.81;;;23.86;55.98
7168;BME280;3625;51.762;14.320;2022-08-30T13:22:01;101211.53;;;24.36;56.79
7168;BME280;3625;51.762;14.320;2022-08-30T13:24:31;101218.41;;;24.13;57.85
7168;BME280;3625;51.762;14.320;2022-08-30T13:27:03;101214.72;;;23.87;59.08
7168;BME280;3625;51.762;14.320;2022-08-30T13:29:36;101217.66;;;23.70;59.70
7168;BME280;3625;51.762;14.320;2022-08-30T13:32:06;101209.38;;;23.45;58.85
7168;BME280;3625;51.762;14.320;2022-08-30T13:34:35;101209.69;;;23.40;60.28
7168;BME280;3625;51.762;14.320;2022-08-30T13:37:05;101205.72;;;23.46;60.83